Time;durP1;ratioP1;P1;durP2;ratioP2;P2;SDS_P1;SDS_P2;PMS_P1;PMS_P2;Temp;Humidity;BMP_temperature;BMP_pressure;BME280_temperature;BME280_humidity;BME280_pressure;Samples;Min_cycle;Max_cycle;Signal;HPM_P1;HPM_P2
2022/10/11 16:20:30;;;;;;;31.95;9.65;;;;;;;13.66;67.34;101607.54;5163813;54;46169;-75
2022/10/11 16:25:38;;;;;;;29.93;10.97;;;;;;;13.61;68.23;101613.19;5061042;57;1134892;-77
2022/10/11 16:30:44;;;;;;;136.40;52.33;;;;;;;13.50;68.28;101612.27;5049347;57;1139053;-77
2022/10/11 16:35:50;;;;;;;122.33;52.67;;;;;;;13.46;68.99;101618.28;5079636;58;1141023;-77
2022/10/11 16:40:56;;;;;;;75.70;31.00;;;;;;;13.45;69.58;101623.70;5080363;58;1145311;-77
2022/10/11 16:46:02;;;;;;;46.10;19.00;;;;;;;13.38;69.82;101630.81;5080652;57;1143088;-77
2022/10/11 16:51:08;;;;;;;33.83;14.70;;;;;;;13.32;70.09;101631.23;5079281;57;1143192;-77
2022/10/11 16:56:14;;;;;;;81.90;38.73;;;;;;;13.19;70.34;101631.73;5096849;57;1143158;-76
2022/10/11 17:01:20;;;;;;;143.03;79.03;;;;;;;13.10;70.81;101638.16;5131014;57;1143321;-77
2022/10/11 17:06:26;;;;;;;119.25;56.13;;;;;;;12.96;70.75;101637.80;5130694;57;1145305;-67
2022/10/11 17:11:34;;;;;;;98.67;50.70;;;;;;;12.87;71.25;101647.71;5045463;57;1145259;-65
2022/10/11 17:16:40;;;;;;;99.63;43.37;;;;;;;12.73;71.21;101643.36;5065365;58;1143164;-69
2022/10/11 17:21:46;;;;;;;90.43;41.27;;;;;;;12.57;71.83;101640.05;5038430;56;1143197;-68
2022/10/11 17:26:52;;;;;;;85.33;37.83;;;;;;;12.43;72.37;101640.98;5050043;57;1143107;-66
2022/10/11 17:31:57;;;;;;;83.30;39.00;;;;;;;12.40;72.86;101650.95;4972117;58;1143390;-69
2022/10/11 17:37:03;;;;;;;93.67;42.50;;;;;;;12.31;72.77;101648.45;4976306;59;1143154;-66
2022/10/11 17:42:09;;;;;;;123.77;63.60;;;;;;;12.11;73.28;101645.79;5029015;57;1143410;-71
2022/10/11 17:47:15;;;;;;;122.10;55.60;;;;;;;12.08;74.35;101658.39;5061552;57;1145622;-70
2022/10/11 17:52:20;;;;;;;109.80;55.70;;;;;;;12.03;74.77;101657.86;5171868;56;1145455;-68
2022/10/11 17:57:26;;;;;;;100.07;52.23;;;;;;;11.90;74.63;101659.14;5107879;57;1145430;-68
2022/10/11 18:02:33;;;;;;;107.80;52.20;;;;;;;11.51;74.76;101665.15;5069448;57;1145646;-69
2022/10/11 18:07:39;;;;;;;111.87;51.93;;;;;;;11.22;75.76;101674.92;5150061;57;1145273;-68
2022/10/11 18:12:45;;;;;;;97.90;52.60;;;;;;;11.22;76.85;101669.16;5143576;57;1145227;-66
2022/10/11 18:17:51;;;;;;;69.53;38.53;;;;;;;11.26;77.42;101672.00;5140278;57;1143399;-69
2022/10/11 18:22:57;;;;;;;111.37;66.40;;;;;;;11.24;77.82;101671.23;5136144;57;1143192;-65
2022/10/11 18:28:02;;;;;;;146.47;94.20;;;;;;;11.21;77.49;101672.74;5126409;57;1145452;-68
2022/10/11 18:33:08;;;;;;;106.63;59.03;;;;;;;11.20;77.76;101675.01;5109078;57;1145328;-75
2022/10/11 18:38:13;;;;;;;97.23;52.10;;;;;;;11.24;78.24;101673.03;5093155;57;1145431;-75
2022/10/11 18:43:19;;;;;;;80.70;41.60;;;;;;;11.27;78.26;101672.84;5098034;57;1143466;-75
2022/10/11 18:48:25;;;;;;;66.73;37.13;;;;;;;11.16;77.64;101677.94;5119634;56;1143265;-76
2022/10/11 18:53:32;;;;;;;70.53;38.03;;;;;;;11.06;77.80;101681.63;5184794;56;1143132;-75
2022/10/11 18:58:39;;;;;;;79.60;40.53;;;;;;;10.92;78.03;101686.44;5128918;57;1143386;-75
2022/10/11 19:03:46;;;;;;;47.60;23.70;;;;;;;10.91;78.66;101691.83;5138845;56;1143181;-75
2022/10/11 19:08:57;;;;;;;68.60;32.80;;;;;;;10.86;78.88;101686.80;5129310;57;1143249;-76
2022/10/11 19:14:07;;;;;;;72.03;32.43;;;;;;;10.80;78.55;101687.66;5129391;57;1143252;-77
2022/10/11 19:19:18;;;;;;;46.47;20.93;;;;;;;10.71;78.53;101686.86;5126604;57;1143140;-75
2022/10/11 19:24:28;;;;;;;43.17;22.33;;;;;;;10.66;78.99;101687.16;5145236;57;1143173;-76
2022/10/11 19:29:34;;;;;;;28.50;13.30;;;;;;;10.59;78.98;101691.09;5103019;57;1143160;-76
2022/10/11 19:34:39;;;;;;;30.62;12.93;;;;;;;10.49;78.88;101694.77;5194310;56;1143168;-76
2022/10/11 19:39:45;;;;;;;33.07;16.83;;;;;;;10.47;79.04;101696.64;5283140;56;1143355;-76
2022/10/11 19:44:51;;;;;;;40.77;17.00;;;;;;;10.47;78.96;101697.11;5279891;56;1141133;-75
2022/10/11 19:49:56;;;;;;;36.63;15.98;;;;;;;10.41;79.09;101690.38;5057148;57;1141113;-75
2022/10/11 19:55:02;;;;;;;39.80;20.27;;;;;;;10.38;79.31;101697.66;5125303;55;1141167;-76
2022/10/11 20:00:09;;;;;;;44.17;21.60;;;;;;;10.33;79.49;101695.73;5153929;55;1141104;-75
2022/10/11 20:05:16;;;;;;;38.60;18.00;;;;;;;10.26;79.29;101693.91;5135627;55;1141014;-77
2022/10/11 20:10:22;;;;;;;124.67;61.00;;;;;;;10.10;79.27;101691.25;5125098;56;1141358;-76
2022/10/11 20:15:28;;;;;;;85.10;44.47;;;;;;;10.03;79.49;101696.98;5115213;55;1143068;-75
2022/10/11 20:20:34;;;;;;;71.57;36.23;;;;;;;9.95;79.09;101697.87;5183973;56;1141169;-75
2022/10/11 20:25:39;;;;;;;48.73;23.03;;;;;;;9.75;78.81;101705.14;5218274;56;1139296;-74
2022/10/11 20:30:45;;;;;;;48.20;22.57;;;;;;;9.44;79.14;101708.61;5218243;56;1137038;-75
2022/10/11 20:36:09;;;;;;;31.80;16.67;;;;;;;9.34;79.99;101706.52;5218264;56;1136932;-74
2022/10/11 20:41:19;;;;;;;26.80;15.37;;;;;;;9.30;80.86;101703.68;5203546;56;1137012;-76
2022/10/11 20:46:28;;;;;;;36.23;16.87;;;;;;;9.32;81.13;101703.95;5212019;55;1138998;-75
2022/10/11 20:51:37;;;;;;;79.03;31.33;;;;;;;9.37;81.49;101699.76;5303999;55;1136948;-75
2022/10/11 20:56:43;;;;;;;101.87;42.07;;;;;;;9.47;81.80;101706.27;5306993;55;1136867;-76
2022/10/11 21:01:49;;;;;;;145.97;51.00;;;;;;;9.47;81.61;101711.05;5300136;55;1143111;-75
2022/10/11 21:06:55;;;;;;;208.30;70.83;;;;;;;9.46;81.77;101717.30;5307656;55;1143179;-74
2022/10/11 21:12:01;;;;;;;109.70;41.00;;;;;;;9.43;81.88;101714.81;5277293;55;1143369;-75
2022/10/11 21:17:07;;;;;;;50.57;18.37;;;;;;;9.36;81.44;101713.89;5223081;56;1143167;-74
2022/10/11 21:22:12;;;;;;;60.50;24.80;;;;;;;9.25;81.08;101713.16;5219224;55;1141171;-75
2022/10/11 21:27:18;;;;;;;47.60;19.43;;;;;;;9.15;81.00;101717.22;5097924;57;1139070;-75
2022/10/11 21:32:24;;;;;;;35.73;16.10;;;;;;;8.99;80.75;101718.48;5168487;56;1139108;-75
2022/10/11 21:37:29;;;;;;;55.53;26.00;;;;;;;8.88;81.09;101728.72;5185594;56;1139116;-75
2022/10/11 21:42:35;;;;;;;53.43;26.07;;;;;;;8.84;81.39;101723.70;5149205;56;1139253;-76
2022/10/11 21:47:43;;;;;;;50.13;23.17;;;;;;;8.83;81.41;101728.59;5220005;56;1141029;-76
2022/10/11 21:52:49;;;;;;;49.07;20.37;;;;;;;8.78;81.12;101724.39;5228900;56;1141384;-76
2022/10/11 21:57:55;;;;;;;48.50;22.13;;;;;;;8.75;81.53;101721.05;5228803;56;1141128;-75
2022/10/11 22:03:01;;;;;;;47.65;19.85;;;;;;;8.67;81.45;101715.33;5228395;56;1141353;-75
2022/10/11 22:08:07;;;;;;;45.80;16.97;;;;;;;8.58;81.58;101726.31;5227986;56;1141335;-75
2022/10/11 22:13:13;;;;;;;35.47;15.27;;;;;;;8.52;81.64;101723.54;5228271;56;1139208;-75
2022/10/11 22:18:20;;;;;;;42.73;19.23;;;;;;;8.34;81.42;101723.98;5234356;55;1138960;-76
2022/10/11 22:23:26;;;;;;;36.27;17.57;;;;;;;8.20;81.89;101717.18;5248788;55;1138951;-75
2022/10/11 22:28:32;;;;;;;27.90;13.30;;;;;;;8.16;82.12;101717.39;5234782;55;1141453;-76
2022/10/11 22:33:38;;;;;;;29.40;15.28;;;;;;;8.20;82.53;101720.27;5152823;55;1141379;-75
2022/10/11 22:38:45;;;;;;;32.55;11.40;;;;;;;8.25;82.84;101719.59;5152847;55;1141085;-76
2022/10/11 22:43:52;;;;;;;29.80;11.40;;;;;;;8.27;82.86;101720.35;5191800;55;1141534;-74
2022/10/11 22:48:58;;;;;;;22.90;12.00;;;;;;;8.24;82.60;101721.84;5231908;55;1141205;-76
2022/10/11 22:54:06;;;;;;;34.43;13.57;;;;;;;8.18;82.52;101716.39;5240566;55;1139222;-75
2022/10/11 22:59:12;;;;;;;36.70;12.67;;;;;;;8.09;82.79;101714.22;5240600;55;1138618;-75
2022/10/11 23:04:18;;;;;;;36.17;11.17;;;;;;;8.02;83.05;101712.33;5240483;55;1139259;-75
2022/10/11 23:09:27;;;;;;;26.10;11.20;;;;;;;7.85;82.75;101717.54;5226947;55;1139103;-75
2022/10/11 23:14:31;;;;;;;24.57;10.70;;;;;;;7.59;83.14;101717.91;5240988;55;1139288;-75
2022/10/11 23:19:37;;;;;;;27.03;11.13;;;;;;;7.47;84.00;101719.33;5241469;55;1141364;-76
2022/10/11 23:24:42;;;;;;;25.30;11.67;;;;;;;7.52;85.12;101721.73;5241243;55;1141109;-76
2022/10/11 23:29:48;;;;;;;33.57;13.50;;;;;;;7.60;85.31;101723.56;5200102;55;1141039;-75
2022/10/11 23:34:55;;;;;;;32.40;13.07;;;;;;;7.53;85.17;101728.25;5193605;55;1141121;-74
2022/10/11 23:40:00;;;;;;;30.45;12.47;;;;;;;7.46;85.08;101726.83;5240591;55;1139122;-74
2022/10/11 23:45:07;;;;;;;27.83;12.37;;;;;;;7.37;85.21;101738.61;5239985;55;1139058;-76
2022/10/11 23:50:13;;;;;;;37.87;13.77;;;;;;;7.32;85.23;101737.98;5239999;55;1139037;-75
2022/10/11 23:55:19;;;;;;;48.10;17.30;;;;;;;7.21;85.12;101737.58;5242919;55;1139010;-73
